Uncle Sam, Louisiana
Current Conditions -  °F | °C
As of 2:35 PM on Monday 22 Dec 2014 (Local Time) from KL38 Reporting Station
Broken Clouds Broken Clouds  
Wind Chill: 77°   Ceiling: 6000
Heat Index: 79°   Visibility: 10mi
Dew Point: 64°   Wind: 16mph
Humidity: 65%   Direction: 220°SW
Pressure: 29.69"   Gusts: 23mph
Location:  30.02°N, 90.82°W
Report Text: KL38 222035Z AUTO 22014G20KT 10SM SCT033 SCT038 BKN060 25/18 A2969 RMK AO2 T02490180
Loading
Personal Weather Stations






























Interactive Weather Map New forecast layout! Learn more

10-Day Weather Forecast

Advertisements
Track Severe Weather on mobile